sensor_id;sensor_type;location;lat;lon;timestamp;P1;durP1;ratioP1;P2;durP2;ratioP2
23360;SDS011;11852;50.082;18.554;2022-07-22T00:33:22;11.6;;;5.8;;
23360;SDS011;11852;50.082;18.554;2022-07-22T00:34:43;9.2;;;6.2;;
23360;SDS011;11852;50.082;18.554;2022-07-22T00:35:49;11.7;;;6.1;;
23360;SDS011;11852;50.082;18.554;2022-07-22T00:37:02;12.4;;;6.4;;
23360;SDS011;11852;50.082;18.554;2022-07-22T00:38:38;10.0;;;5.9;;
23360;SDS011;11852;50.082;18.554;2022-07-22T00:40:13;9.7;;;6.6;;
23360;SDS011;11852;50.082;18.554;2022-07-22T00:41:21;9.0;;;6.1;;
23360;SDS011;11852;50.082;18.554;2022-07-22T00:42:28;11.2;;;6.4;;
23360;SDS011;11852;50.082;18.554;2022-07-22T00:44:55;9.3;;;6.4;;
23360;SDS011;11852;50.082;18.554;2022-07-22T00:46:04;9.5;;;6.5;;
23360;SDS011;11852;50.082;18.554;2022-07-22T00:47:25;10.6;;;6.0;;
23360;SDS011;11852;50.082;18.554;2022-07-22T00:48:48;9.3;;;6.3;;
23360;SDS011;11852;50.082;18.554;2022-07-22T00:49:55;13.1;;;6.2;;
23360;SDS011;11852;50.082;18.554;2022-07-22T00:51:32;13.1;;;5.9;;
23360;SDS011;11852;50.082;18.554;2022-07-22T00:52:44;8.8;;;6.4;;
23360;SDS011;11852;50.082;18.554;2022-07-22T00:54:02;13.8;;;6.7;;
23360;SDS011;11852;50.082;18.554;2022-07-22T00:55:32;10.0;;;6.3;;
23360;SDS011;11852;50.082;18.554;2022-07-22T00:56:56;10.6;;;6.3;;
23360;SDS011;11852;50.082;18.554;2022-07-22T00:58:29;10.6;;;5.9;;
23360;SDS011;11852;50.082;18.554;2022-07-22T00:59:52;10.6;;;6.1;;
23360;SDS011;11852;50.082;18.554;2022-07-22T01:01:08;12.3;;;6.6;;
23360;SDS011;11852;50.082;18.554;2022-07-22T01:02:13;8.4;;;6.1;;
23360;SDS011;11852;50.082;18.554;2022-07-22T01:03:21;8.8;;;6.2;;
23360;SDS011;11852;50.082;18.554;2022-07-22T01:04:39;8.8;;;5.8;;
23360;SDS011;11852;50.082;18.554;2022-07-22T01:05:44;9.6;;;6.1;;
23360;SDS011;11852;50.082;18.554;2022-07-22T01:06:59;8.1;;;6.1;;
23360;SDS011;11852;50.082;18.554;2022-07-22T01:08:27;9.1;;;5.9;;
23360;SDS011;11852;50.082;18.554;2022-07-22T01:09:35;10.0;;;6.2;;
23360;SDS011;11852;50.082;18.554;2022-07-22T01:10:43;12.2;;;6.3;;
23360;SDS011;11852;50.082;18.554;2022-07-22T01:11:55;8.2;;;6.0;;
23360;SDS011;11852;50.082;18.554;2022-07-22T01:13:30;9.2;;;6.1;;
23360;SDS011;11852;50.082;18.554;2022-07-22T01:14:38;9.7;;;6.5;;
23360;SDS011;11852;50.082;18.554;2022-07-22T01:15:44;11.4;;;6.2;;
23360;SDS011;11852;50.082;18.554;2022-07-22T01:17:21;10.9;;;6.6;;
23360;SDS011;11852;50.082;18.554;2022-07-22T01:18:27;9.7;;;6.7;;
23360;SDS011;11852;50.082;18.554;2022-07-22T01:19:36;8.5;;;5.9;;
23360;SDS011;11852;50.082;18.554;2022-07-22T01:20:41;8.7;;;6.3;;
23360;SDS011;11852;50.082;18.554;2022-07-22T01:21:47;9.6;;;6.3;;
23360;SDS011;11852;50.082;18.554;2022-07-22T01:22:56;10.4;;;6.7;;
23360;SDS011;11852;50.082;18.554;2022-07-22T01:24:03;9.1;;;5.7;;
23360;SDS011;11852;50.082;18.554;2022-07-22T01:25:09;9.6;;;6.0;;
23360;SDS011;11852;50.082;18.554;2022-07-22T01:26:27;7.8;;;6.1;;
23360;SDS011;11852;50.082;18.554;2022-07-22T01:27:33;7.7;;;6.1;;
23360;SDS011;11852;50.082;18.554;2022-07-22T01:28:39;7.1;;;6.2;;
23360;SDS011;11852;50.082;18.554;2022-07-22T01:29:46;7.7;;;5.9;;
23360;SDS011;11852;50.082;18.554;2022-07-22T01:30:52;10.3;;;6.3;;
23360;SDS011;11852;50.082;18.554;2022-07-22T01:31:57;9.8;;;6.3;;
23360;SDS011;11852;50.082;18.554;2022-07-22T01:33:08;10.3;;;6.4;;
23360;SDS011;11852;50.082;18.554;2022-07-22T01:34:30;10.3;;;6.3;;
23360;SDS011;11852;50.082;18.554;2022-07-22T01:35:47;8.5;;;6.3;;
23360;SDS011;11852;50.082;18.554;2022-07-22T01:36:55;8.7;;;6.0;;
23360;SDS011;11852;50.082;18.554;2022-07-22T01:38:01;8.9;;;6.3;;
23360;SDS011;11852;50.082;18.554;2022-07-22T01:39:08;7.5;;;6.0;;
23360;SDS011;11852;50.082;18.554;2022-07-22T01:40:14;10.3;;;5.8;;
23360;SDS011;11852;50.082;18.554;2022-07-22T01:41:30;6.5;;;5.8;;
23360;SDS011;11852;50.082;18.554;2022-07-22T01:42:44;11.2;;;6.3;;
23360;SDS011;11852;50.082;18.554;2022-07-22T01:43:59;9.0;;;5.8;;
23360;SDS011;11852;50.082;18.554;2022-07-22T01:45:06;7.4;;;6.2;;
23360;SDS011;11852;50.082;18.554;2022-07-22T01:46:20;8.8;;;5.6;;
23360;SDS011;11852;50.082;18.554;2022-07-22T01:47:25;8.8;;;6.2;;
23360;SDS011;11852;50.082;18.554;2022-07-22T01:48:30;8.9;;;6.2;;
23360;SDS011;11852;50.082;18.554;2022-07-22T01:49:37;9.4;;;6.1;;
23360;SDS011;11852;50.082;18.554;2022-07-22T01:50:44;8.9;;;6.2;;
23360;SDS011;11852;50.082;18.554;2022-07-22T01:51:49;6.8;;;5.8;;
23360;SDS011;11852;50.082;18.554;2022-07-22T01:53:14;6.8;;;5.8;;
23360;SDS011;11852;50.082;18.554;2022-07-22T01:54:21;6.8;;;5.8;;
23360;SDS011;11852;50.082;18.554;2022-07-22T01:55:29;8.5;;;6.4;;
23360;SDS011;11852;50.082;18.554;2022-07-22T01:56:42;9.2;;;6.2;;
23360;SDS011;11852;50.082;18.554;2022-07-22T01:59:12;11.9;;;6.6;;
23360;SDS011;11852;50.082;18.554;2022-07-22T02:00:34;9.8;;;6.5;;
23360;SDS011;11852;50.082;18.554;2022-07-22T02:02:27;9.8;;;6.5;;
23360;SDS011;11852;50.082;18.554;2022-07-22T02:03:49;9.3;;;6.2;;
23360;SDS011;11852;50.082;18.554;2022-07-22T02:05:23;7.6;;;6.8;;
23360;SDS011;11852;50.082;18.554;2022-07-22T02:07:18;9.4;;;6.7;;
23360;SDS011;11852;50.082;18.554;2022-07-22T02:09:30;9.9;;;6.8;;
23360;SDS011;11852;50.082;18.554;2022-07-22T02:11:40;7.5;;;5.5;;
23360;SDS011;11852;50.082;18.554;2022-07-22T02:13:52;7.5;;;5.5;;
23360;SDS011;11852;50.082;18.554;2022-07-22T02:15:09;6.7;;;6.0;;
23360;SDS011;11852;50.082;18.554;2022-07-22T02:16:42;7.2;;;6.5;;
23360;SDS011;11852;50.082;18.554;2022-07-22T02:18:53;7.4;;;6.0;;
23360;SDS011;11852;50.082;18.554;2022-07-22T02:20:11;9.3;;;6.0;;
23360;SDS011;11852;50.082;18.554;2022-07-22T02:21:16;10.5;;;6.6;;
23360;SDS011;11852;50.082;18.554;2022-07-22T02:24:42;8.6;;;6.3;;
23360;SDS011;11852;50.082;18.554;2022-07-22T02:26:42;10.3;;;6.1;;
23360;SDS011;11852;50.082;18.554;2022-07-22T02:28:28;8.5;;;6.2;;
23360;SDS011;11852;50.082;18.554;2022-07-22T02:30:26;7.7;;;6.1;;
23360;SDS011;11852;50.082;18.554;2022-07-22T02:31:40;7.3;;;5.8;;
23360;SDS011;11852;50.082;18.554;2022-07-22T02:33:05;8.7;;;6.1;;
23360;SDS011;11852;50.082;18.554;2022-07-22T02:34:51;9.1;;;6.2;;
23360;SDS011;11852;50.082;18.554;2022-07-22T02:36:01;7.0;;;5.8;;
23360;SDS011;11852;50.082;18.554;2022-07-22T02:37:17;9.2;;;6.6;;
23360;SDS011;11852;50.082;18.554;2022-07-22T02:38:23;9.9;;;5.9;;
23360;SDS011;11852;50.082;18.554;2022-07-22T02:39:29;10.8;;;6.3;;
23360;SDS011;11852;50.082;18.554;2022-07-22T02:40:37;10.1;;;6.1;;
23360;SDS011;11852;50.082;18.554;2022-07-22T02:41:44;8.1;;;5.6;;
23360;SDS011;11852;50.082;18.554;2022-07-22T02:43:07;8.3;;;5.6;;
23360;SDS011;11852;50.082;18.554;2022-07-22T02:44:15;6.9;;;6.2;;
23360;SDS011;11852;50.082;18.554;2022-07-22T02:45:43;9.7;;;6.2;;
23360;SDS011;11852;50.082;18.554;2022-07-22T02:47:02;8.2;;;6.0;;
23360;SDS011;11852;50.082;18.554;2022-07-22T02:49:12;9.0;;;5.9;;
23360;SDS011;11852;50.082;18.554;2022-07-22T02:50:47;6.6;;;5.9;;
23360;SDS011;11852;50.082;18.554;2022-07-22T02:52:03;8.3;;;6.4;;
23360;SDS011;11852;50.082;18.554;2022-07-22T02:53:51;6.4;;;5.8;;
23360;SDS011;11852;50.082;18.554;2022-07-22T02:55:37;7.5;;;5.4;;
23360;SDS011;11852;50.082;18.554;2022-07-22T02:57:45;5.9;;;5.3;;
23360;SDS011;11852;50.082;18.554;2022-07-22T02:59:58;5.9;;;5.3;;
23360;SDS011;11852;50.082;18.554;2022-07-22T03:02:30;7.1;;;5.4;;
23360;SDS011;11852;50.082;18.554;2022-07-22T03:03:47;7.5;;;5.6;;
23360;SDS011;11852;50.082;18.554;2022-07-22T03:05:20;7.4;;;5.4;;
23360;SDS011;11852;50.082;18.554;2022-07-22T03:07:03;6.3;;;5.4;;
23360;SDS011;11852;50.082;18.554;2022-07-22T03:08:37;9.1;;;6.4;;
23360;SDS011;11852;50.082;18.554;2022-07-22T03:09:58;9.4;;;6.4;;
23360;SDS011;11852;50.082;18.554;2022-07-22T03:12:23;7.2;;;5.4;;
23360;SDS011;11852;50.082;18.554;2022-07-22T03:13:31;7.3;;;6.3;;
23360;SDS011;11852;50.082;18.554;2022-07-22T03:14:57;8.1;;;5.8;;
23360;SDS011;11852;50.082;18.554;2022-07-22T03:16:10;6.5;;;5.8;;
23360;SDS011;11852;50.082;18.554;2022-07-22T03:17:38;6.5;;;6.2;;
23360;SDS011;11852;50.082;18.554;2022-07-22T03:19:36;8.5;;;6.7;;
23360;SDS011;11852;50.082;18.554;2022-07-22T03:20:49;6.4;;;5.8;;
23360;SDS011;11852;50.082;18.554;2022-07-22T03:22:07;8.5;;;5.8;;
23360;SDS011;11852;50.082;18.554;2022-07-22T03:23:15;7.7;;;5.9;;
23360;SDS011;11852;50.082;18.554;2022-07-22T03:24:22;8.6;;;6.0;;
23360;SDS011;11852;50.082;18.554;2022-07-22T03:26:21;8.6;;;6.4;;
23360;SDS011;11852;50.082;18.554;2022-07-22T03:28:05;10.7;;;6.3;;
23360;SDS011;11852;50.082;18.554;2022-07-22T03:30:08;10.7;;;6.1;;
23360;SDS011;11852;50.082;18.554;2022-07-22T03:31:43;6.1;;;5.5;;
23360;SDS011;11852;50.082;18.554;2022-07-22T03:32:54;7.8;;;6.2;;
23360;SDS011;11852;50.082;18.554;2022-07-22T03:34:38;6.8;;;5.7;;
23360;SDS011;11852;50.082;18.554;2022-07-22T03:36:12;6.9;;;5.8;;
23360;SDS011;11852;50.082;18.554;2022-07-22T03:37:35;9.5;;;6.4;;
23360;SDS011;11852;50.082;18.554;2022-07-22T03:40:36;9.2;;;6.0;;
23360;SDS011;11852;50.082;18.554;2022-07-22T03:41:58;7.8;;;5.9;;
23360;SDS011;11852;50.082;18.554;2022-07-22T03:43:28;6.9;;;6.1;;
23360;SDS011;11852;50.082;18.554;2022-07-22T03:45:27;7.6;;;5.7;;
23360;SDS011;11852;50.082;18.554;2022-07-22T03:46:47;8.3;;;6.0;;
23360;SDS011;11852;50.082;18.554;2022-07-22T03:48:15;7.8;;;5.6;;
23360;SDS011;11852;50.082;18.554;2022-07-22T03:50:30;7.8;;;5.6;;
23360;SDS011;11852;50.082;18.554;2022-07-22T03:51:47;6.5;;;6.0;;
23360;SDS011;11852;50.082;18.554;2022-07-22T03:53:36;7.6;;;5.6;;
23360;SDS011;11852;50.082;18.554;2022-07-22T03:55:50;8.4;;;6.0;;
23360;SDS011;11852;50.082;18.554;2022-07-22T03:57:47;8.6;;;6.1;;
23360;SDS011;11852;50.082;18.554;2022-07-22T04:00:00;6.9;;;5.7;;
23360;SDS011;11852;50.082;18.554;2022-07-22T04:01:24;8.6;;;5.9;;
23360;SDS011;11852;50.082;18.554;2022-07-22T04:02:33;10.0;;;5.9;;
23360;SDS011;11852;50.082;18.554;2022-07-22T04:03:51;9.5;;;6.2;;
23360;SDS011;11852;50.082;18.554;2022-07-22T04:05:54;7.0;;;6.3;;
23360;SDS011;11852;50.082;18.554;2022-07-22T04:08:06;10.2;;;6.2;;
23360;SDS011;11852;50.082;18.554;2022-07-22T04:09:57;6.7;;;5.7;;
23360;SDS011;11852;50.082;18.554;2022-07-22T04:11:13;7.1;;;5.1;;
23360;SDS011;11852;50.082;18.554;2022-07-22T04:12:59;8.9;;;6.2;;
23360;SDS011;11852;50.082;18.554;2022-07-22T04:15:43;8.2;;;6.0;;
23360;SDS011;11852;50.082;18.554;2022-07-22T04:16:56;6.8;;;6.1;;
23360;SDS011;11852;50.082;18.554;2022-07-22T04:18:15;9.1;;;6.0;;
23360;SDS011;11852;50.082;18.554;2022-07-22T04:19:40;9.0;;;6.2;;
23360;SDS011;11852;50.082;18.554;2022-07-22T04:21:07;9.1;;;5.8;;
23360;SDS011;11852;50.082;18.554;2022-07-22T04:22:28;9.1;;;5.6;;
23360;SDS011;11852;50.082;18.554;2022-07-22T04:25:14;9.1;;;5.8;;
23360;SDS011;11852;50.082;18.554;2022-07-22T04:26:58;9.1;;;5.8;;
23360;SDS011;11852;50.082;18.554;2022-07-22T04:28:06;10.2;;;6.6;;
23360;SDS011;11852;50.082;18.554;2022-07-22T04:29:37;9.4;;;5.9;;
23360;SDS011;11852;50.082;18.554;2022-07-22T04:31:13;8.0;;;6.1;;
23360;SDS011;11852;50.082;18.554;2022-07-22T04:32:40;8.7;;;5.9;;
23360;SDS011;11852;50.082;18.554;2022-07-22T04:35:40;10.8;;;6.2;;
23360;SDS011;11852;50.082;18.554;2022-07-22T04:36:59;8.1;;;6.3;;
23360;SDS011;11852;50.082;18.554;2022-07-22T04:38:17;7.1;;;6.0;;
23360;SDS011;11852;50.082;18.554;2022-07-22T04:40:23;7.1;;;6.0;;
23360;SDS011;11852;50.082;18.554;2022-07-22T04:41:39;8.6;;;6.0;;
23360;SDS011;11852;50.082;18.554;2022-07-22T04:43:26;8.6;;;6.7;;
23360;SDS011;11852;50.082;18.554;2022-07-22T04:44:41;9.5;;;6.4;;
23360;SDS011;11852;50.082;18.554;2022-07-22T04:45:55;7.3;;;6.4;;
23360;SDS011;11852;50.082;18.554;2022-07-22T04:47:07;7.7;;;6.3;;
23360;SDS011;11852;50.082;18.554;2022-07-22T04:48:42;7.9;;;6.1;;
23360;SDS011;11852;50.082;18.554;2022-07-22T04:50:39;9.5;;;6.5;;
23360;SDS011;11852;50.082;18.554;2022-07-22T04:51:50;9.5;;;5.9;;
23360;SDS011;11852;50.082;18.554;2022-07-22T04:53:14;9.5;;;5.9;;
23360;SDS011;11852;50.082;18.554;2022-07-22T04:55:06;7.1;;;5.9;;
23360;SDS011;11852;50.082;18.554;2022-07-22T04:56:46;7.6;;;6.3;;
23360;SDS011;11852;50.082;18.554;2022-07-22T04:58:25;9.2;;;5.9;;
23360;SDS011;11852;50.082;18.554;2022-07-22T05:00:07;8.5;;;6.1;;
23360;SDS011;11852;50.082;18.554;2022-07-22T05:01:29;7.9;;;6.3;;
23360;SDS011;11852;50.082;18.554;2022-07-22T05:02:54;6.0;;;5.4;;
23360;SDS011;11852;50.082;18.554;2022-07-22T05:04:03;9.0;;;5.9;;
23360;SDS011;11852;50.082;18.554;2022-07-22T05:05:26;6.8;;;6.5;;
23360;SDS011;11852;50.082;18.554;2022-07-22T05:08:27;10.1;;;6.3;;
23360;SDS011;11852;50.082;18.554;2022-07-22T05:09:41;9.5;;;6.3;;
23360;SDS011;11852;50.082;18.554;2022-07-22T05:11:07;9.1;;;6.2;;
23360;SDS011;11852;50.082;18.554;2022-07-22T05:12:14;7.7;;;6.1;;
23360;SDS011;11852;50.082;18.554;2022-07-22T05:13:38;7.2;;;5.8;;
23360;SDS011;11852;50.082;18.554;2022-07-22T05:15:01;10.3;;;6.5;;
23360;SDS011;11852;50.082;18.554;2022-07-22T05:16:16;9.0;;;6.3;;
23360;SDS011;11852;50.082;18.554;2022-07-22T05:17:39;9.0;;;6.3;;
23360;SDS011;11852;50.082;18.554;2022-07-22T05:18:50;8.8;;;5.8;;
23360;SDS011;11852;50.082;18.554;2022-07-22T05:19:57;7.1;;;6.0;;
23360;SDS011;11852;50.082;18.554;2022-07-22T05:21:06;10.3;;;6.4;;
23360;SDS011;11852;50.082;18.554;2022-07-22T05:22:57;8.2;;;5.9;;
23360;SDS011;11852;50.082;18.554;2022-07-22T05:25:00;8.2;;;5.9;;
23360;SDS011;11852;50.082;18.554;2022-07-22T05:26:11;8.3;;;6.2;;
23360;SDS011;11852;50.082;18.554;2022-07-22T05:28:37;7.3;;;5.3;;
23360;SDS011;11852;50.082;18.554;2022-07-22T05:30:21;9.3;;;5.7;;
23360;SDS011;11852;50.082;18.554;2022-07-22T05:31:46;8.2;;;6.0;;
23360;SDS011;11852;50.082;18.554;2022-07-22T05:33:31;8.0;;;5.9;;
23360;SDS011;11852;50.082;18.554;2022-07-22T05:35:06;7.1;;;6.4;;
23360;SDS011;11852;50.082;18.554;2022-07-22T05:36:32;7.1;;;6.7;;
23360;SDS011;11852;50.082;18.554;2022-07-22T05:40:27;9.1;;;6.2;;
23360;SDS011;11852;50.082;18.554;2022-07-22T05:41:51;8.9;;;6.0;;
23360;SDS011;11852;50.082;18.554;2022-07-22T05:42:58;9.8;;;5.9;;
23360;SDS011;11852;50.082;18.554;2022-07-22T05:44:09;9.8;;;6.0;;
23360;SDS011;11852;50.082;18.554;2022-07-22T05:45:34;7.6;;;6.2;;
23360;SDS011;11852;50.082;18.554;2022-07-22T05:47:19;8.3;;;6.2;;
23360;SDS011;11852;50.082;18.554;2022-07-22T05:48:35;7.4;;;6.0;;
23360;SDS011;11852;50.082;18.554;2022-07-22T05:51:54;7.9;;;6.2;;
23360;SDS011;11852;50.082;18.554;2022-07-22T05:53:21;8.1;;;5.8;;
23360;SDS011;11852;50.082;18.554;2022-07-22T05:55:31;7.0;;;6.3;;
23360;SDS011;11852;50.082;18.554;2022-07-22T05:57:23;7.2;;;6.1;;
23360;SDS011;11852;50.082;18.554;2022-07-22T05:58:48;7.1;;;6.0;;
23360;SDS011;11852;50.082;18.554;2022-07-22T06:00:14;7.1;;;6.4;;
23360;SDS011;11852;50.082;18.554;2022-07-22T06:01:29;8.9;;;6.5;;
23360;SDS011;11852;50.082;18.554;2022-07-22T06:04:17;8.9;;;6.7;;
23360;SDS011;11852;50.082;18.554;2022-07-22T06:05:30;8.2;;;6.0;;
23360;SDS011;11852;50.082;18.554;2022-07-22T06:07:04;10.1;;;6.8;;
23360;SDS011;11852;50.082;18.554;2022-07-22T06:08:49;7.8;;;6.7;;
23360;SDS011;11852;50.082;18.554;2022-07-22T06:09:58;7.1;;;6.4;;
23360;SDS011;11852;50.082;18.554;2022-07-22T06:12:07;10.7;;;6.7;;
23360;SDS011;11852;50.082;18.554;2022-07-22T06:13:31;8.4;;;6.2;;
23360;SDS011;11852;50.082;18.554;2022-07-22T06:15:50;10.3;;;7.2;;
23360;SDS011;11852;50.082;18.554;2022-07-22T06:18:39;10.0;;;6.2;;
23360;SDS011;11852;50.082;18.554;2022-07-22T06:19:59;9.1;;;6.7;;
23360;SDS011;11852;50.082;18.554;2022-07-22T06:21:50;9.8;;;7.0;;
23360;SDS011;11852;50.082;18.554;2022-07-22T06:23:08;14.1;;;6.8;;
23360;SDS011;11852;50.082;18.554;2022-07-22T06:24:34;14.1;;;6.5;;
23360;SDS011;11852;50.082;18.554;2022-07-22T06:26:15;10.0;;;7.2;;
23360;SDS011;11852;50.082;18.554;2022-07-22T06:27:20;13.5;;;6.7;;
23360;SDS011;11852;50.082;18.554;2022-07-22T06:28:44;11.3;;;7.1;;
23360;SDS011;11852;50.082;18.554;2022-07-22T06:30:06;13.1;;;7.0;;
23360;SDS011;11852;50.082;18.554;2022-07-22T06:31:22;13.0;;;7.2;;
23360;SDS011;11852;50.082;18.554;2022-07-22T06:33:03;19.3;;;7.9;;
23360;SDS011;11852;50.082;18.554;2022-07-22T06:34:14;15.6;;;7.1;;
23360;SDS011;11852;50.082;18.554;2022-07-22T06:35:19;15.2;;;7.3;;
23360;SDS011;11852;50.082;18.554;2022-07-22T06:36:24;11.1;;;6.7;;
23360;SDS011;11852;50.082;18.554;2022-07-22T06:37:42;9.6;;;7.1;;
23360;SDS011;11852;50.082;18.554;2022-07-22T06:41:05;9.1;;;7.0;;
23360;SDS011;11852;50.082;18.554;2022-07-22T06:42:28;7.9;;;6.8;;
23360;SDS011;11852;50.082;18.554;2022-07-22T06:43:38;10.1;;;6.7;;
23360;SDS011;11852;50.082;18.554;2022-07-22T06:48:44;9.4;;;6.7;;
23360;SDS011;11852;50.082;18.554;2022-07-22T06:49:53;7.9;;;6.5;;
23360;SDS011;11852;50.082;18.554;2022-07-22T07:00:57;6.7;;;5.8;;
23360;SDS011;11852;50.082;18.554;2022-07-22T07:02:10;7.6;;;6.3;;
23360;SDS011;11852;50.082;18.554;2022-07-22T07:04:27;7.6;;;6.4;;
23360;SDS011;11852;50.082;18.554;2022-07-22T07:22:06;9.8;;;6.6;;
23360;SDS011;11852;50.082;18.554;2022-07-22T07:23:22;9.8;;;6.6;;
23360;SDS011;11852;50.082;18.554;2022-07-22T07:24:39;9.8;;;6.6;;
23360;SDS011;11852;50.082;18.554;2022-07-22T07:26:08;9.8;;;6.6;;
23360;SDS011;11852;50.082;18.554;2022-07-22T07:27:26;9.8;;;6.6;;
23360;SDS011;11852;50.082;18.554;2022-07-22T07:28:42;9.8;;;6.6;;
23360;SDS011;11852;50.082;18.554;2022-07-22T07:30:43;9.8;;;6.6;;
23360;SDS011;11852;50.082;18.554;2022-07-22T07:32:16;9.8;;;6.6;;
23360;SDS011;11852;50.082;18.554;2022-07-22T07:33:34;9.8;;;6.6;;
23360;SDS011;11852;50.082;18.554;2022-07-22T07:35:10;9.8;;;6.6;;
23360;SDS011;11852;50.082;18.554;2022-07-22T07:36:24;9.8;;;6.6;;
23360;SDS011;11852;50.082;18.554;2022-07-22T07:37:30;9.8;;;6.6;;
23360;SDS011;11852;50.082;18.554;2022-07-22T07:38:46;9.8;;;6.6;;
23360;SDS011;11852;50.082;18.554;2022-07-22T07:40:12;9.8;;;6.6;;
23360;SDS011;11852;50.082;18.554;2022-07-22T07:41:37;9.8;;;6.6;;
23360;SDS011;11852;50.082;18.554;2022-07-22T07:43:00;9.8;;;6.6;;
23360;SDS011;11852;50.082;18.554;2022-07-22T07:44:38;9.8;;;6.6;;
23360;SDS011;11852;50.082;18.554;2022-07-22T07:45:44;9.8;;;6.6;;
23360;SDS011;11852;50.082;18.554;2022-07-22T07:47:04;9.8;;;6.6;;
23360;SDS011;11852;50.082;18.554;2022-07-22T07:48:36;9.8;;;6.6;;
23360;SDS011;11852;50.082;18.554;2022-07-22T07:50:52;9.8;;;6.6;;
23360;SDS011;11852;50.082;18.554;2022-07-22T07:52:02;9.8;;;6.6;;
23360;SDS011;11852;50.082;18.554;2022-07-22T07:53:18;9.8;;;6.6;;
23360;SDS011;11852;50.082;18.554;2022-07-22T07:54:27;9.8;;;6.6;;
23360;SDS011;11852;50.082;18.554;2022-07-22T07:55:37;9.8;;;6.6;;
23360;SDS011;11852;50.082;18.554;2022-07-22T07:56:51;9.8;;;6.6;;
23360;SDS011;11852;50.082;18.554;2022-07-22T07:59:34;9.8;;;6.6;;
23360;SDS011;11852;50.082;18.554;2022-07-22T08:01:45;9.8;;;6.6;;
23360;SDS011;11852;50.082;18.554;2022-07-22T08:02:52;9.8;;;6.6;;
23360;SDS011;11852;50.082;18.554;2022-07-22T08:03:59;9.8;;;6.6;;
23360;SDS011;11852;50.082;18.554;2022-07-22T08:05:19;9.8;;;6.6;;
23360;SDS011;11852;50.082;18.554;2022-07-22T08:06:24;9.8;;;6.6;;
23360;SDS011;11852;50.082;18.554;2022-07-22T08:07:29;9.8;;;6.6;;
23360;SDS011;11852;50.082;18.554;2022-07-22T08:08:37;9.8;;;6.6;;
23360;SDS011;11852;50.082;18.554;2022-07-22T08:09:55;9.8;;;6.6;;
23360;SDS011;11852;50.082;18.554;2022-07-22T08:11:02;9.8;;;6.6;;
23360;SDS011;11852;50.082;18.554;2022-07-22T08:12:26;9.8;;;6.6;;
23360;SDS011;11852;50.082;18.554;2022-07-22T08:14:16;9.8;;;6.6;;
23360;SDS011;11852;50.082;18.554;2022-07-22T08:15:32;9.8;;;6.6;;
23360;SDS011;11852;50.082;18.554;2022-07-22T08:16:40;9.8;;;6.6;;
23360;SDS011;11852;50.082;18.554;2022-07-22T08:18:27;9.8;;;6.6;;
23360;SDS011;11852;50.082;18.554;2022-07-22T08:19:32;9.8;;;6.6;;
23360;SDS011;11852;50.082;18.554;2022-07-22T08:20:50;9.8;;;6.6;;
23360;SDS011;11852;50.082;18.554;2022-07-22T08:22:17;9.8;;;6.6;;
23360;SDS011;11852;50.082;18.554;2022-07-22T08:23:24;9.8;;;6.6;;
23360;SDS011;11852;50.082;18.554;2022-07-22T08:24:57;9.8;;;6.6;;
23360;SDS011;11852;50.082;18.554;2022-07-22T08:26:05;9.8;;;6.6;;
23360;SDS011;11852;50.082;18.554;2022-07-22T08:27:10;9.8;;;6.6;;
23360;SDS011;11852;50.082;18.554;2022-07-22T08:28:16;9.8;;;6.6;;
23360;SDS011;11852;50.082;18.554;2022-07-22T08:29:24;9.8;;;6.6;;
23360;SDS011;11852;50.082;18.554;2022-07-22T08:30:41;9.8;;;6.6;;
23360;SDS011;11852;50.082;18.554;2022-07-22T08:31:56;9.8;;;6.6;;
23360;SDS011;11852;50.082;18.554;2022-07-22T08:33:02;9.8;;;6.6;;
23360;SDS011;11852;50.082;18.554;2022-07-22T08:34:09;9.8;;;6.6;;
23360;SDS011;11852;50.082;18.554;2022-07-22T08:36:01;9.8;;;6.6;;
23360;SDS011;11852;50.082;18.554;2022-07-22T08:37:06;9.8;;;6.6;;
23360;SDS011;11852;50.082;18.554;2022-07-22T08:38:11;9.8;;;6.6;;
23360;SDS011;11852;50.082;18.554;2022-07-22T08:39:38;9.8;;;6.6;;
23360;SDS011;11852;50.082;18.554;2022-07-22T08:41:24;9.8;;;6.6;;
23360;SDS011;11852;50.082;18.554;2022-07-22T08:42:27;9.8;;;6.6;;
23360;SDS011;11852;50.082;18.554;2022-07-22T08:43:35;9.8;;;6.6;;
23360;SDS011;11852;50.082;18.554;2022-07-22T08:45:15;9.8;;;6.6;;
23360;SDS011;11852;50.082;18.554;2022-07-22T08:47:02;9.8;;;6.6;;
23360;SDS011;11852;50.082;18.554;2022-07-22T08:48:08;9.8;;;6.6;;
23360;SDS011;11852;50.082;18.554;2022-07-22T08:49:30;9.8;;;6.6;;
23360;SDS011;11852;50.082;18.554;2022-07-22T08:50:36;9.8;;;6.6;;
23360;SDS011;11852;50.082;18.554;2022-07-22T08:51:53;9.8;;;6.6;;
23360;SDS011;11852;50.082;18.554;2022-07-22T08:53:12;9.8;;;6.6;;
23360;SDS011;11852;50.082;18.554;2022-07-22T08:54:43;9.8;;;6.6;;
23360;SDS011;11852;50.082;18.554;2022-07-22T08:56:15;9.8;;;6.6;;
23360;SDS011;11852;50.082;18.554;2022-07-22T08:57:46;9.8;;;6.6;;
23360;SDS011;11852;50.082;18.554;2022-07-22T08:58:50;9.8;;;6.6;;
23360;SDS011;11852;50.082;18.554;2022-07-22T09:00:01;9.8;;;6.6;;
23360;SDS011;11852;50.082;18.554;2022-07-22T09:01:37;9.8;;;6.6;;
23360;SDS011;11852;50.082;18.554;2022-07-22T09:04:06;9.8;;;6.6;;
23360;SDS011;11852;50.082;18.554;2022-07-22T09:05:33;9.8;;;6.6;;
23360;SDS011;11852;50.082;18.554;2022-07-22T09:06:47;9.8;;;6.6;;
23360;SDS011;11852;50.082;18.554;2022-07-22T09:08:19;9.8;;;6.6;;
23360;SDS011;11852;50.082;18.554;2022-07-22T09:10:05;9.8;;;6.6;;
23360;SDS011;11852;50.082;18.554;2022-07-22T09:11:18;9.8;;;6.6;;
23360;SDS011;11852;50.082;18.554;2022-07-22T09:13:15;9.8;;;6.6;;
23360;SDS011;11852;50.082;18.554;2022-07-22T09:16:58;9.8;;;6.6;;
23360;SDS011;11852;50.082;18.554;2022-07-22T09:18:09;9.8;;;6.6;;
23360;SDS011;11852;50.082;18.554;2022-07-22T09:19:19;9.8;;;6.6;;
23360;SDS011;11852;50.082;18.554;2022-07-22T09:20:42;9.8;;;6.6;;
23360;SDS011;11852;50.082;18.554;2022-07-22T09:21:53;9.8;;;6.6;;
23360;SDS011;11852;50.082;18.554;2022-07-22T09:23:19;9.8;;;6.6;;
23360;SDS011;11852;50.082;18.554;2022-07-22T09:26:53;9.8;;;6.6;;
23360;SDS011;11852;50.082;18.554;2022-07-22T09:29:48;9.8;;;6.6;;
23360;SDS011;11852;50.082;18.554;2022-07-22T09:30:55;9.8;;;6.6;;
23360;SDS011;11852;50.082;18.554;2022-07-22T09:32:03;9.8;;;6.6;;
23360;SDS011;11852;50.082;18.554;2022-07-22T09:33:28;9.8;;;6.6;;
23360;SDS011;11852;50.082;18.554;2022-07-22T09:36:25;9.8;;;6.6;;
23360;SDS011;11852;50.082;18.554;2022-07-22T09:40:56;9.8;;;6.6;;
23360;SDS011;11852;50.082;18.554;2022-07-22T09:42:03;9.8;;;6.6;;
23360;SDS011;11852;50.082;18.554;2022-07-22T09:43:14;9.8;;;6.6;;
23360;SDS011;11852;50.082;18.554;2022-07-22T09:44:42;9.8;;;6.6;;
23360;SDS011;11852;50.082;18.554;2022-07-22T09:45:51;9.8;;;6.6;;
23360;SDS011;11852;50.082;18.554;2022-07-22T09:47:02;9.8;;;6.6;;
23360;SDS011;11852;50.082;18.554;2022-07-22T09:48:28;9.8;;;6.6;;
23360;SDS011;11852;50.082;18.554;2022-07-22T09:49:55;9.8;;;6.6;;
23360;SDS011;11852;50.082;18.554;2022-07-22T09:51:00;9.8;;;6.6;;
23360;SDS011;11852;50.082;18.554;2022-07-22T09:52:17;9.8;;;6.6;;
23360;SDS011;11852;50.082;18.554;2022-07-22T09:53:22;9.8;;;6.6;;
23360;SDS011;11852;50.082;18.554;2022-07-22T09:54:28;9.8;;;6.6;;
23360;SDS011;11852;50.082;18.554;2022-07-22T09:55:42;9.8;;;6.6;;
23360;SDS011;11852;50.082;18.554;2022-07-22T09:56:59;9.8;;;6.6;;
23360;SDS011;11852;50.082;18.554;2022-07-22T09:58:28;9.8;;;6.6;;
23360;SDS011;11852;50.082;18.554;2022-07-22T10:00:23;9.8;;;6.6;;
23360;SDS011;11852;50.082;18.554;2022-07-22T10:02:11;9.8;;;6.6;;
23360;SDS011;11852;50.082;18.554;2022-07-22T10:07:16;9.8;;;6.6;;
23360;SDS011;11852;50.082;18.554;2022-07-22T10:08:36;9.8;;;6.6;;
23360;SDS011;11852;50.082;18.554;2022-07-22T10:14:14;9.8;;;6.6;;
23360;SDS011;11852;50.082;18.554;2022-07-22T10:25:15;9.8;;;6.6;;
23360;SDS011;11852;50.082;18.554;2022-07-22T10:28:00;9.8;;;6.6;;
23360;SDS011;11852;50.082;18.554;2022-07-22T10:30:45;9.8;;;6.6;;
23360;SDS011;11852;50.082;18.554;2022-07-22T10:33:18;9.8;;;6.6;;
23360;SDS011;11852;50.082;18.554;2022-07-22T10:38:09;9.8;;;6.6;;
23360;SDS011;11852;50.082;18.554;2022-07-22T10:52:45;9.8;;;6.6;;